HTZA/ZNZ METAR and TAF weather

Enter ICAO airport designator
Station Type Date Time Source
HTZA METAR 2020/01/18 04:00 UTC NOAA

HTZA 180400Z 01005KT 9999 FEW016 BKN080 27/25 Q1009 NOSIG


Station Type Date Time Source
HTZA Decoded METAR 2020/01/18 04:00 UTC NOAA

Zanzibar / Kisauni, Tanzania (HTZA) 06-13S 039-13E 15M
Jan 17, 2020 - 11:00 PM EST / 2020.01.18 0400 UTC
Wind: from the N (010 degrees) at 6 MPH (5 KT):0
Visibility: greater than 7 mile(s):0
Sky conditions: mostly cloudy
Temperature: 80 F (27 C)
Dew Point: 77 F (25 C)
Relative Humidity: 88%
Pressure (altimeter): 29.80 in. Hg (1009 hPa)
ob: HTZA 180400Z 01005KT 9999 FEW016 BKN080 27/25 Q1009 NOSIG
cycle: 4

Station Type Date Time Source
HTZA TAF 2020/01/18 00:00 UTC NOAA

HTZA 172300Z 1800/1824 02010KT 9999 SCT014

Example: see airport list